createdAt,value
2022-09-23T00:01:09.798Z,5.70
2022-09-23T00:03:37.781Z,5.60
2022-09-23T00:06:07.001Z,5.60
2022-09-23T00:08:33.366Z,5.60
2022-09-23T00:11:32.794Z,5.60
2022-09-23T00:13:59.658Z,5.60
2022-09-23T00:16:27.803Z,5.60
2022-09-23T00:18:54.161Z,5.60
2022-09-23T00:21:20.786Z,5.60
2022-09-23T00:23:48.132Z,5.50
2022-09-23T00:26:15.774Z,5.50
2022-09-23T00:28:43.042Z,5.50
2022-09-23T00:31:16.172Z,5.50
2022-09-23T00:33:42.473Z,5.50
2022-09-23T00:36:11.055Z,5.50
2022-09-23T00:38:38.068Z,5.60
2022-09-23T00:41:04.914Z,5.60
2022-09-23T00:44:20.490Z,5.60
2022-09-23T00:46:47.180Z,5.70
2022-09-23T00:49:17.592Z,5.70
2022-09-23T00:51:47.829Z,5.80
2022-09-23T00:54:14.062Z,5.80
2022-09-23T00:56:40.247Z,5.80
2022-09-23T00:59:08.323Z,5.80
2022-09-23T01:01:36.818Z,5.80
2022-09-23T01:04:03.387Z,5.80
2022-09-23T01:06:31.499Z,5.80
2022-09-23T01:08:57.733Z,5.80
2022-09-23T01:12:34.546Z,5.70
2022-09-23T01:17:59.952Z,5.70
2022-09-23T01:20:52.620Z,5.70
2022-09-23T01:25:00.984Z,5.60
2022-09-23T01:32:20.993Z,5.60
2022-09-23T01:34:56.559Z,5.60
2022-09-23T01:37:46.322Z,5.50
2022-09-23T01:40:49.461Z,5.40
2022-09-23T01:43:46.352Z,5.40
2022-09-23T01:46:27.319Z,5.40
2022-09-23T01:49:07.587Z,5.40
2022-09-23T01:51:53.780Z,5.30
2022-09-23T01:54:28.243Z,5.30
2022-09-23T01:57:10.102Z,5.40
2022-09-23T01:59:45.827Z,5.40
2022-09-23T02:02:31.888Z,5.30
2022-09-23T02:05:02.424Z,5.30
2022-09-23T02:07:54.307Z,5.30
2022-09-23T02:11:58.754Z,5.20
2022-09-23T02:14:29.635Z,5.20
2022-09-23T02:16:58.502Z,5.30
2022-09-23T02:19:39.408Z,5.30
2022-09-23T02:22:27.866Z,5.30
2022-09-23T02:24:56.109Z,5.30
2022-09-23T02:29:00.231Z,5.30
2022-09-23T02:32:32.027Z,5.30
2022-09-23T02:36:39.934Z,5.30
2022-09-23T02:39:08.190Z,5.30
2022-09-23T02:42:04.000Z,5.30
2022-09-23T02:44:33.149Z,5.40
2022-09-23T02:46:59.767Z,5.40
2022-09-23T02:49:27.579Z,5.30
2022-09-23T02:51:56.644Z,6.20
2022-09-23T02:54:25.461Z,5.20
2022-09-23T02:56:52.938Z,5.20
2022-09-23T02:59:20.397Z,5.20
2022-09-23T03:02:16.777Z,5.20
2022-09-23T03:05:57.295Z,5.10
2022-09-23T03:08:57.341Z,5.10
2022-09-23T03:11:24.100Z,5.10
2022-09-23T03:14:39.086Z,5.10
2022-09-23T03:17:14.117Z,5.10
2022-09-23T03:19:48.037Z,5.10
2022-09-23T03:23:02.449Z,5.20
2022-09-23T03:25:31.396Z,5.10
2022-09-23T03:27:58.377Z,5.00
2022-09-23T03:30:26.006Z,5.00
2022-09-23T03:32:52.351Z,4.90
2022-09-23T03:35:18.542Z,4.80
2022-09-23T03:37:48.644Z,4.70
2022-09-23T03:40:17.344Z,4.70
2022-09-23T03:42:43.583Z,4.60
2022-09-23T03:45:12.666Z,4.60
2022-09-23T03:47:38.848Z,4.60
2022-09-23T03:50:05.802Z,4.60
2022-09-23T03:52:32.262Z,4.60
2022-09-23T03:54:58.437Z,4.60
2022-09-23T03:57:25.151Z,4.50
2022-09-23T03:59:51.490Z,4.50
2022-09-23T04:02:18.448Z,4.40
2022-09-23T04:04:45.139Z,4.40
2022-09-23T04:07:11.316Z,4.40
2022-09-23T04:09:37.571Z,4.40
2022-09-23T04:12:04.282Z,4.60
2022-09-23T04:14:30.481Z,4.60
2022-09-23T04:16:56.734Z,4.50
2022-09-23T04:19:23.323Z,4.40
2022-09-23T04:21:49.528Z,4.40
2022-09-23T04:24:16.354Z,4.30
2022-09-23T04:26:43.190Z,4.30
2022-09-23T04:29:11.348Z,4.20
2022-09-23T04:31:37.676Z,4.20
2022-09-23T04:34:05.054Z,4.10
2022-09-23T04:36:31.326Z,4.10
2022-09-23T04:38:57.606Z,4.00
2022-09-23T04:41:23.776Z,4.20
2022-09-23T04:43:50.002Z,4.20
2022-09-23T04:46:16.243Z,4.20
2022-09-23T04:48:42.519Z,4.10
2022-09-23T04:51:14.035Z,4.10
2022-09-23T04:53:42.359Z,4.10
2022-09-23T04:56:18.469Z,4.10
2022-09-23T04:58:48.075Z,4.10
2022-09-23T05:01:19.283Z,4.10
2022-09-23T05:03:46.263Z,4.20
2022-09-23T05:06:13.348Z,4.20
2022-09-23T05:08:46.864Z,4.30
2022-09-23T05:11:13.118Z,4.40
2022-09-23T05:13:39.303Z,4.50
2022-09-23T05:16:11.358Z,4.70
2022-09-23T05:18:42.098Z,4.80
2022-09-23T05:21:12.076Z,5.00
2022-09-23T05:23:39.122Z,5.20
2022-09-23T05:26:07.151Z,5.40
2022-09-23T05:28:34.032Z,5.60
2022-09-23T05:31:19.916Z,5.80
2022-09-23T05:33:48.718Z,6.00
2022-09-23T05:36:17.227Z,6.20
2022-09-23T05:38:43.493Z,6.40
2022-09-23T05:41:11.746Z,6.60
2022-09-23T05:43:38.011Z,6.60
2022-09-23T05:46:15.367Z,6.90
2022-09-23T05:48:41.845Z,7.40
2022-09-23T05:51:12.166Z,8.50
2022-09-23T05:53:40.035Z,9.50
2022-09-23T05:56:06.380Z,9.80
2022-09-23T05:58:32.621Z,10.10
2022-09-23T06:00:58.794Z,9.70
2022-09-23T06:03:25.272Z,9.50
2022-09-23T06:05:55.212Z,9.10
2022-09-23T06:08:22.157Z,8.90
2022-09-23T06:10:53.532Z,8.80
2022-09-23T06:13:20.935Z,8.80
2022-09-23T06:15:47.214Z,8.80
2022-09-23T06:18:13.451Z,9.00
2022-09-23T06:20:39.677Z,9.40
2022-09-23T06:23:10.225Z,9.50
2022-09-23T06:25:37.913Z,9.60
2022-09-23T06:28:04.173Z,9.70
2022-09-23T06:30:30.407Z,9.80
2022-09-23T06:32:57.507Z,10.20
2022-09-23T06:35:27.777Z,10.70
2022-09-23T06:37:54.455Z,11.80
2022-09-23T06:40:21.813Z,12.50
2022-09-23T06:42:52.239Z,13.00
2022-09-23T06:45:18.861Z,13.80
2022-09-23T06:47:45.141Z,14.50
2022-09-23T06:50:14.214Z,14.60
2022-09-23T06:52:40.648Z,14.70
2022-09-23T06:55:09.474Z,15.20
2022-09-23T06:57:36.227Z,16.10
2022-09-23T07:00:03.213Z,16.70
2022-09-23T07:02:29.674Z,17.00
2022-09-23T07:04:56.870Z,18.00
2022-09-23T07:07:23.311Z,19.00
2022-09-23T07:09:49.764Z,19.10
2022-09-23T07:12:16.062Z,18.60
2022-09-23T07:14:42.957Z,18.80
2022-09-23T07:17:09.863Z,18.80
2022-09-23T07:19:36.694Z,18.20
2022-09-23T07:22:03.139Z,18.10
2022-09-23T07:24:29.457Z,17.60
2022-09-23T07:26:56.101Z,17.20
2022-09-23T07:29:22.941Z,16.60
2022-09-23T07:31:49.646Z,15.80
2022-09-23T07:34:16.233Z,15.50
2022-09-23T07:36:42.557Z,15.10
2022-09-23T07:39:10.616Z,15.00
2022-09-23T07:41:37.827Z,15.00
2022-09-23T07:44:05.442Z,15.20
2022-09-23T07:46:33.862Z,16.20
2022-09-23T07:49:01.503Z,16.80
2022-09-23T07:51:34.746Z,18.10
2022-09-23T07:54:06.920Z,19.00
2022-09-23T07:56:34.480Z,19.80
2022-09-23T07:59:01.625Z,20.20
2022-09-23T08:02:02.434Z,20.30
2022-09-23T08:04:30.127Z,20.40
2022-09-23T08:07:00.866Z,21.30
2022-09-23T08:09:32.967Z,21.20
2022-09-23T08:11:59.421Z,21.50
2022-09-23T08:14:25.726Z,23.30
2022-09-23T08:16:52.001Z,21.80
2022-09-23T08:19:18.242Z,22.60
2022-09-23T08:21:46.040Z,22.30
2022-09-23T08:24:17.049Z,22.40
2022-09-23T08:26:43.987Z,22.70
2022-09-23T08:29:15.131Z,22.60
2022-09-23T08:31:41.600Z,23.20
2022-09-23T08:34:08.000Z,22.90
2022-09-23T08:36:34.739Z,22.70
2022-09-23T08:39:01.394Z,22.60
2022-09-23T08:43:01.785Z,22.60
2022-09-23T08:45:28.548Z,22.60
2022-09-23T08:48:12.723Z,22.40
2022-09-23T08:50:53.159Z,22.40
2022-09-23T08:53:32.117Z,23.00
2022-09-23T08:55:59.097Z,22.30
2022-09-23T08:59:56.196Z,22.90
2022-09-23T09:02:22.616Z,22.70
2022-09-23T09:04:57.212Z,23.50
2022-09-23T09:07:36.607Z,23.00
2022-09-23T09:10:16.064Z,23.60
2022-09-23T09:13:02.550Z,23.10
2022-09-23T09:15:29.041Z,22.40
2022-09-23T09:18:26.216Z,22.40
2022-09-23T09:21:13.624Z,22.30
2022-09-23T09:24:32.076Z,22.30
2022-09-23T09:26:58.772Z,22.40
2022-09-23T09:29:36.174Z,22.50
2022-09-23T09:32:36.125Z,22.80
2022-09-23T09:35:08.410Z,22.20
2022-09-23T09:37:38.817Z,21.80
2022-09-23T09:40:08.239Z,22.00
2022-09-23T09:42:39.246Z,22.00
2022-09-23T09:45:40.173Z,21.80
2022-09-23T09:48:16.808Z,21.50
2022-09-23T09:50:51.372Z,21.50
2022-09-23T09:53:25.964Z,22.00
2022-09-23T09:56:09.194Z,21.60
2022-09-23T09:59:10.741Z,22.00
2022-09-23T10:01:37.145Z,21.10
2022-09-23T10:04:05.237Z,20.40
2022-09-23T10:06:33.043Z,20.80
2022-09-23T10:09:35.022Z,21.40
2022-09-23T10:12:15.422Z,22.00
2022-09-23T10:14:42.823Z,22.10
2022-09-23T10:17:17.621Z,22.20
2022-09-23T10:19:46.028Z,22.20
2022-09-23T10:22:21.304Z,22.00
2022-09-23T10:24:52.887Z,21.40
2022-09-23T10:27:30.841Z,20.90
2022-09-23T10:30:02.841Z,20.00
2022-09-23T10:32:44.251Z,20.70
2022-09-23T10:35:18.333Z,21.00
2022-09-23T10:38:00.129Z,21.20
2022-09-23T10:40:56.209Z,21.80
2022-09-23T10:45:37.467Z,21.00
2022-09-23T10:48:25.108Z,19.90
2022-09-23T10:50:54.901Z,19.80
2022-09-23T10:57:37.650Z,19.70
2022-09-23T11:03:12.710Z,19.70
2022-09-23T11:06:12.624Z,19.80
2022-09-23T11:08:58.714Z,21.30
2022-09-23T11:12:50.364Z,21.80
2022-09-23T11:16:07.916Z,21.50
2022-09-23T11:21:14.053Z,21.30
2022-09-23T11:25:51.051Z,20.50
2022-09-23T11:31:46.807Z,19.70
2022-09-23T11:36:06.313Z,20.70
2022-09-23T11:38:46.116Z,21.20
2022-09-23T11:41:30.582Z,20.60
2022-09-23T11:44:14.436Z,21.30
2022-09-23T11:50:18.307Z,21.50
2022-09-23T11:52:47.643Z,21.10
2022-09-23T11:56:32.593Z,21.50
2022-09-23T11:59:50.683Z,22.10
2022-09-23T12:05:51.888Z,22.10
2022-09-23T12:08:36.586Z,21.70
2022-09-23T12:12:39.280Z,21.20
2022-09-23T12:17:02.190Z,21.60
2022-09-23T12:22:36.066Z,22.00
2022-09-23T12:25:55.760Z,22.30
2022-09-23T12:28:30.713Z,21.60
2022-09-23T12:30:58.587Z,21.80
2022-09-23T12:33:37.999Z,21.30
2022-09-23T12:36:14.154Z,20.30
2022-09-23T12:40:06.423Z,19.80
2022-09-23T12:42:32.824Z,18.80
2022-09-23T12:52:06.914Z,18.40
2022-09-23T12:54:33.518Z,19.70
2022-09-23T12:57:00.749Z,20.10
2022-09-23T12:59:59.277Z,20.60
2022-09-23T13:02:42.891Z,20.70
2022-09-23T13:05:40.012Z,20.70
2022-09-23T13:08:20.224Z,20.80
2022-09-23T13:10:54.365Z,20.50
2022-09-23T13:13:26.469Z,19.40
2022-09-23T13:15:53.442Z,18.80
2022-09-23T13:18:23.263Z,18.40
2022-09-23T13:20:53.550Z,18.00
2022-09-23T13:23:27.616Z,17.70
2022-09-23T13:25:59.017Z,17.50
2022-09-23T13:28:39.800Z,17.80
2022-09-23T13:31:10.023Z,18.00
2022-09-23T13:34:11.671Z,17.80
2022-09-23T13:36:47.512Z,17.70
2022-09-23T13:39:22.238Z,17.70
2022-09-23T13:41:48.668Z,18.10
2022-09-23T13:44:19.204Z,18.70
2022-09-23T13:46:53.335Z,18.90
2022-09-23T13:49:25.387Z,19.20
2022-09-23T13:51:53.964Z,18.90
2022-09-23T13:54:35.664Z,19.20
2022-09-23T13:57:02.407Z,19.00
2022-09-23T13:59:36.857Z,18.90
2022-09-23T14:02:13.953Z,18.90
2022-09-23T14:04:40.443Z,19.10
2022-09-23T14:07:07.877Z,19.30
2022-09-23T14:09:35.247Z,19.10
2022-09-23T14:12:03.447Z,19.30
2022-09-23T14:14:30.171Z,19.70
2022-09-23T14:16:56.481Z,19.50
2022-09-23T14:19:23.458Z,19.60
2022-09-23T14:21:51.228Z,19.60
2022-09-23T14:24:38.535Z,19.50
2022-09-23T14:27:15.112Z,18.90
2022-09-23T14:29:43.215Z,18.40
2022-09-23T14:32:14.841Z,18.30
2022-09-23T14:35:10.720Z,18.60
2022-09-23T14:38:05.018Z,18.60
2022-09-23T14:40:33.986Z,18.60
2022-09-23T14:43:15.289Z,18.90
2022-09-23T14:45:44.211Z,18.70
2022-09-23T14:48:16.274Z,18.80
2022-09-23T14:50:57.014Z,18.50
2022-09-23T14:53:34.309Z,18.50
2022-09-23T14:56:17.954Z,18.60
2022-09-23T14:58:59.415Z,18.20
2022-09-23T15:01:36.569Z,17.70
2022-09-23T15:04:12.178Z,17.20
2022-09-23T15:06:40.284Z,17.10
2022-09-23T15:09:07.734Z,17.30
2022-09-23T15:11:35.529Z,17.30
2022-09-23T15:14:19.626Z,17.30
2022-09-23T15:17:00.693Z,17.10
2022-09-23T15:19:28.378Z,16.80
2022-09-23T15:21:56.019Z,16.50
2022-09-23T15:24:45.118Z,16.20
2022-09-23T15:27:30.654Z,15.90
2022-09-23T15:30:16.617Z,15.70
2022-09-23T15:32:46.236Z,15.60
2022-09-23T15:35:15.040Z,15.40
2022-09-23T15:37:45.939Z,15.20
2022-09-23T15:40:24.041Z,15.00
2022-09-23T15:42:53.512Z,14.80
2022-09-23T15:45:27.957Z,14.50
2022-09-23T15:47:55.748Z,14.20
2022-09-23T15:50:22.190Z,14.00
2022-09-23T15:52:48.618Z,13.90
2022-09-23T15:55:21.208Z,13.60
2022-09-23T15:57:47.764Z,13.40
2022-09-23T16:00:15.214Z,13.30
2022-09-23T16:02:43.435Z,13.20
2022-09-23T16:06:11.448Z,13.10
2022-09-23T16:08:38.607Z,12.80
2022-09-23T16:11:05.928Z,12.60
2022-09-23T16:13:32.262Z,12.60
2022-09-23T16:15:58.613Z,12.50
2022-09-23T16:18:25.026Z,12.40
2022-09-23T16:20:52.900Z,12.30
2022-09-23T16:23:38.172Z,12.20
2022-09-23T16:26:16.434Z,12.10
2022-09-23T16:28:43.586Z,11.90
2022-09-23T16:31:15.594Z,11.80
2022-09-23T16:33:45.284Z,11.70
2022-09-23T16:36:38.975Z,11.50
2022-09-23T16:39:07.324Z,11.40
2022-09-23T16:41:34.306Z,11.30
2022-09-23T16:44:03.839Z,11.20
2022-09-23T16:46:31.096Z,11.10
2022-09-23T16:48:58.021Z,11.10
2022-09-23T16:51:26.120Z,11.00
2022-09-23T16:53:53.286Z,10.90
2022-09-23T16:56:25.675Z,10.80
2022-09-23T16:58:54.788Z,10.70
2022-09-23T17:01:41.528Z,10.70
2022-09-23T17:04:09.962Z,10.60
2022-09-23T17:06:44.323Z,10.50
2022-09-23T17:09:11.018Z,10.50
2022-09-23T17:11:40.011Z,10.40
2022-09-23T17:14:06.760Z,10.20
2022-09-23T17:16:33.613Z,10.20
2022-09-23T17:19:07.329Z,10.10
2022-09-23T17:21:34.037Z,10.10
2022-09-23T17:24:00.978Z,10.00
2022-09-23T17:26:28.066Z,10.00
2022-09-23T17:28:55.235Z,10.00
2022-09-23T17:31:21.702Z,9.90
2022-09-23T17:33:48.152Z,9.80
2022-09-23T17:36:14.785Z,9.70
2022-09-23T17:38:44.514Z,9.60
2022-09-23T17:41:11.022Z,9.50
2022-09-23T17:43:41.929Z,9.50
2022-09-23T17:46:15.127Z,9.40
2022-09-23T17:48:43.020Z,9.30
2022-09-23T17:51:15.125Z,9.20
2022-09-23T17:53:43.767Z,9.10
2022-09-23T17:56:29.520Z,9.10
2022-09-23T17:58:59.269Z,9.00
2022-09-23T18:01:26.317Z,8.90
2022-09-23T18:03:54.906Z,8.80
2022-09-23T18:06:23.297Z,8.80
2022-09-23T18:08:50.706Z,8.70
2022-09-23T18:11:23.083Z,8.70
2022-09-23T18:13:53.228Z,8.60
2022-09-23T18:16:26.034Z,8.70
2022-09-23T18:18:57.376Z,8.60
2022-09-23T18:21:25.132Z,8.50
2022-09-23T18:23:53.459Z,8.40
2022-09-23T18:26:21.780Z,8.40
2022-09-23T18:28:49.777Z,8.40
2022-09-23T18:31:16.261Z,8.40
2022-09-23T18:33:50.969Z,8.40
2022-09-23T18:36:17.967Z,8.30
2022-09-23T18:38:46.439Z,8.30
2022-09-23T18:41:13.394Z,8.20
2022-09-23T18:43:47.637Z,8.20
2022-09-23T18:46:19.884Z,8.30
2022-09-23T18:49:06.175Z,8.10
2022-09-23T18:51:35.694Z,8.10
2022-09-23T18:54:02.934Z,8.00
2022-09-23T18:56:36.708Z,7.90
2022-09-23T18:59:06.546Z,7.90
2022-09-23T19:01:35.039Z,7.90
2022-09-23T19:04:03.050Z,7.80
2022-09-23T19:06:31.489Z,7.90
2022-09-23T19:08:58.008Z,7.90
2022-09-23T19:11:24.470Z,7.80
2022-09-23T19:13:54.918Z,7.90
2022-09-23T19:16:23.530Z,7.90
2022-09-23T19:18:51.587Z,7.70
2022-09-23T19:21:20.014Z,7.90
2022-09-23T19:23:51.143Z,7.90
2022-09-23T19:26:19.779Z,7.90
2022-09-23T19:28:49.655Z,7.80
2022-09-23T19:31:22.833Z,7.80
2022-09-23T19:34:00.062Z,7.80
2022-09-23T19:36:28.837Z,7.80
2022-09-23T19:38:57.020Z,7.90
2022-09-23T19:41:24.575Z,7.90
2022-09-23T19:43:55.852Z,7.90
2022-09-23T19:46:23.058Z,7.80
2022-09-23T19:48:50.211Z,7.60
2022-09-23T19:51:18.979Z,7.60
2022-09-23T19:53:51.008Z,7.70
2022-09-23T19:56:17.758Z,7.60
2022-09-23T19:58:46.978Z,7.50
2022-09-23T20:01:17.207Z,7.50
2022-09-23T20:03:45.086Z,7.50
2022-09-23T20:06:11.725Z,7.50
2022-09-23T20:08:38.804Z,7.60
2022-09-23T20:11:11.265Z,7.50
2022-09-23T20:13:41.110Z,7.50
2022-09-23T20:16:16.854Z,7.50
2022-09-23T20:18:43.436Z,7.40
2022-09-23T20:21:13.406Z,7.40
2022-09-23T20:23:42.714Z,7.40
2022-09-23T20:26:27.470Z,7.30
2022-09-23T20:28:53.878Z,7.30
2022-09-23T20:31:23.444Z,7.30
2022-09-23T20:33:51.168Z,7.20
2022-09-23T20:36:18.476Z,7.20
2022-09-23T20:38:45.709Z,7.20
2022-09-23T20:41:13.038Z,7.20
2022-09-23T20:43:42.382Z,7.20
2022-09-23T20:46:09.005Z,7.20
2022-09-23T20:48:35.711Z,7.10
2022-09-23T20:51:03.366Z,7.20
2022-09-23T20:53:31.242Z,7.10
2022-09-23T20:55:58.822Z,7.10
2022-09-23T20:58:29.242Z,7.10
2022-09-23T21:01:11.072Z,7.10
2022-09-23T21:03:39.179Z,7.00
2022-09-23T21:06:07.780Z,7.00
2022-09-23T21:08:36.161Z,7.40
2022-09-23T21:11:04.013Z,6.90
2022-09-23T21:13:30.855Z,6.90
2022-09-23T21:16:08.571Z,6.90
2022-09-23T21:18:35.044Z,6.90
2022-09-23T21:21:01.414Z,6.90
2022-09-23T21:23:31.874Z,6.90
2022-09-23T21:26:11.609Z,6.90
2022-09-23T21:28:39.490Z,6.90
2022-09-23T21:31:12.551Z,6.80
2022-09-23T21:33:38.972Z,6.80
2022-09-23T21:36:06.316Z,6.70
2022-09-23T21:38:36.866Z,6.60
2022-09-23T21:41:06.571Z,6.60
2022-09-23T21:43:35.139Z,6.60
2022-09-23T21:46:02.739Z,6.60
2022-09-23T21:48:31.899Z,6.60
2022-09-23T21:51:02.930Z,6.60
2022-09-23T21:53:30.410Z,6.60
2022-09-23T21:56:07.668Z,6.70
2022-09-23T21:58:34.778Z,6.70
2022-09-23T22:01:02.803Z,6.70
2022-09-23T22:03:29.544Z,6.80
2022-09-23T22:06:09.526Z,6.80
2022-09-23T22:08:37.804Z,6.90
2022-09-23T22:12:04.331Z,7.00
2022-09-23T22:14:30.752Z,7.00
2022-09-23T22:17:02.635Z,7.10
2022-09-23T22:19:42.671Z,7.10
2022-09-23T22:22:13.528Z,7.20
2022-09-23T22:24:40.557Z,7.10
2022-09-23T22:27:07.727Z,7.10
2022-09-23T22:29:52.518Z,7.10
2022-09-23T22:32:36.978Z,7.10
2022-09-23T22:35:03.816Z,7.10
2022-09-23T22:37:34.586Z,7.10
2022-09-23T22:40:01.634Z,7.20
2022-09-23T22:42:28.553Z,7.10
2022-09-23T22:44:57.402Z,7.00
2022-09-23T22:47:23.651Z,6.90
2022-09-23T22:49:53.872Z,6.80
2022-09-23T22:52:23.607Z,6.80
2022-09-23T22:54:52.576Z,6.70
2022-09-23T22:57:19.409Z,6.60
2022-09-23T22:59:47.312Z,6.70
2022-09-23T23:02:17.452Z,6.60
2022-09-23T23:04:46.497Z,6.60
2022-09-23T23:07:16.995Z,6.70
2022-09-23T23:09:43.642Z,6.60
2022-09-23T23:12:09.948Z,6.50
2022-09-23T23:14:37.397Z,6.70
2022-09-23T23:17:07.876Z,6.70
2022-09-23T23:19:35.549Z,6.80
2022-09-23T23:22:01.787Z,6.90
2022-09-23T23:24:28.201Z,7.00
2022-09-23T23:26:54.488Z,6.90
2022-09-23T23:29:21.221Z,6.90
2022-09-23T23:31:47.652Z,6.90
2022-09-23T23:34:15.624Z,6.90
2022-09-23T23:36:43.027Z,6.90
2022-09-23T23:39:09.504Z,6.80
2022-09-23T23:41:35.731Z,6.70
2022-09-23T23:44:02.123Z,6.60
2022-09-23T23:46:29.567Z,6.40
2022-09-23T23:48:56.126Z,6.40
2022-09-23T23:51:22.478Z,6.20
2022-09-23T23:53:48.671Z,6.20
2022-09-23T23:56:16.578Z,6.20
2022-09-23T23:58:42.797Z,6.00
